sensor_id;sensor_type;location;lat;lon;timestamp;P1;durP1;ratioP1;P2;durP2;ratioP2
69226;SDS011;56334;52.398;7.552;2023-02-28T00:00:49;11.90;;;5.15;;
69226;SDS011;56334;52.398;7.552;2023-02-28T00:03:15;16.25;;;6.07;;
69226;SDS011;56334;52.398;7.552;2023-02-28T00:05:41;14.02;;;6.43;;
69226;SDS011;56334;52.398;7.552;2023-02-28T00:08:08;13.98;;;5.50;;
69226;SDS011;56334;52.398;7.552;2023-02-28T00:10:34;14.13;;;5.55;;
69226;SDS011;56334;52.398;7.552;2023-02-28T00:15:32;13.43;;;5.88;;
69226;SDS011;56334;52.398;7.552;2023-02-28T00:17:59;13.20;;;5.70;;
69226;SDS011;56334;52.398;7.552;2023-02-28T00:20:25;15.80;;;6.07;;
69226;SDS011;56334;52.398;7.552;2023-02-28T00:22:52;14.18;;;5.03;;
69226;SDS011;56334;52.398;7.552;2023-02-28T00:25:19;13.30;;;4.80;;
69226;SDS011;56334;52.398;7.552;2023-02-28T00:27:46;13.85;;;5.50;;
69226;SDS011;56334;52.398;7.552;2023-02-28T00:30:16;15.05;;;5.47;;
69226;SDS011;56334;52.398;7.552;2023-02-28T00:32:42;13.43;;;5.35;;
69226;SDS011;56334;52.398;7.552;2023-02-28T00:35:09;13.48;;;5.40;;
69226;SDS011;56334;52.398;7.552;2023-02-28T00:37:35;15.27;;;4.70;;
69226;SDS011;56334;52.398;7.552;2023-02-28T00:40:02;11.27;;;4.18;;
69226;SDS011;56334;52.398;7.552;2023-02-28T00:42:30;13.63;;;5.50;;
69226;SDS011;56334;52.398;7.552;2023-02-28T00:44:57;14.25;;;5.13;;
69226;SDS011;56334;52.398;7.552;2023-02-28T00:47:23;12.80;;;4.57;;
69226;SDS011;56334;52.398;7.552;2023-02-28T00:49:49;12.98;;;4.72;;
69226;SDS011;56334;52.398;7.552;2023-02-28T00:52:33;12.18;;;5.03;;
69226;SDS011;56334;52.398;7.552;2023-02-28T00:55:02;12.05;;;4.63;;
69226;SDS011;56334;52.398;7.552;2023-02-28T00:57:32;14.90;;;5.30;;
69226;SDS011;56334;52.398;7.552;2023-02-28T00:59:58;13.32;;;5.15;;
69226;SDS011;56334;52.398;7.552;2023-02-28T01:02:24;15.77;;;4.90;;
69226;SDS011;56334;52.398;7.552;2023-02-28T01:04:51;11.82;;;4.28;;
69226;SDS011;56334;52.398;7.552;2023-02-28T01:07:17;12.43;;;5.10;;
69226;SDS011;56334;52.398;7.552;2023-02-28T01:09:46;12.27;;;4.70;;
69226;SDS011;56334;52.398;7.552;2023-02-28T01:12:14;14.55;;;5.45;;
69226;SDS011;56334;52.398;7.552;2023-02-28T01:14:40;11.38;;;5.00;;
69226;SDS011;56334;52.398;7.552;2023-02-28T01:17:07;13.88;;;5.68;;
69226;SDS011;56334;52.398;7.552;2023-02-28T01:19:33;12.68;;;5.15;;
69226;SDS011;56334;52.398;7.552;2023-02-28T01:22:04;11.77;;;5.43;;
69226;SDS011;56334;52.398;7.552;2023-02-28T01:24:31;12.57;;;4.32;;
69226;SDS011;56334;52.398;7.552;2023-02-28T01:26:57;12.50;;;4.93;;
69226;SDS011;56334;52.398;7.552;2023-02-28T01:29:24;14.85;;;4.85;;
69226;SDS011;56334;52.398;7.552;2023-02-28T01:31:52;12.57;;;4.97;;
69226;SDS011;56334;52.398;7.552;2023-02-28T01:34:18;13.95;;;5.57;;
69226;SDS011;56334;52.398;7.552;2023-02-28T01:36:44;15.65;;;6.43;;
69226;SDS011;56334;52.398;7.552;2023-02-28T01:39:10;15.32;;;4.97;;
69226;SDS011;56334;52.398;7.552;2023-02-28T01:41:37;14.63;;;5.47;;
69226;SDS011;56334;52.398;7.552;2023-02-28T01:44:06;15.55;;;6.20;;
69226;SDS011;56334;52.398;7.552;2023-02-28T01:49:16;14.13;;;5.22;;
69226;SDS011;56334;52.398;7.552;2023-02-28T01:52:04;13.27;;;4.65;;
69226;SDS011;56334;52.398;7.552;2023-02-28T01:54:30;11.95;;;4.60;;
69226;SDS011;56334;52.398;7.552;2023-02-28T01:59:31;15.25;;;5.53;;
69226;SDS011;56334;52.398;7.552;2023-02-28T02:01:58;14.63;;;4.82;;
69226;SDS011;56334;52.398;7.552;2023-02-28T02:04:26;15.07;;;5.28;;
69226;SDS011;56334;52.398;7.552;2023-02-28T02:06:52;13.02;;;4.88;;
69226;SDS011;56334;52.398;7.552;2023-02-28T02:09:19;10.88;;;4.68;;
69226;SDS011;56334;52.398;7.552;2023-02-28T02:11:45;12.05;;;4.85;;
69226;SDS011;56334;52.398;7.552;2023-02-28T02:16:45;17.38;;;5.13;;
69226;SDS011;56334;52.398;7.552;2023-02-28T02:34:37;14.32;;;5.05;;
69226;SDS011;56334;52.398;7.552;2023-02-28T02:37:11;12.93;;;4.65;;
69226;SDS011;56334;52.398;7.552;2023-02-28T02:42:25;13.77;;;5.03;;
69226;SDS011;56334;52.398;7.552;2023-02-28T02:45:06;14.13;;;4.53;;
69226;SDS011;56334;52.398;7.552;2023-02-28T02:50:04;12.52;;;5.20;;
69226;SDS011;56334;52.398;7.552;2023-02-28T02:52:37;14.07;;;5.28;;
69226;SDS011;56334;52.398;7.552;2023-02-28T02:55:04;12.40;;;4.95;;
69226;SDS011;56334;52.398;7.552;2023-02-28T02:57:53;15.35;;;5.30;;
69226;SDS011;56334;52.398;7.552;2023-02-28T03:00:18;14.50;;;4.93;;
69226;SDS011;56334;52.398;7.552;2023-02-28T03:02:45;13.07;;;4.65;;
69226;SDS011;56334;52.398;7.552;2023-02-28T03:05:16;12.07;;;4.93;;
69226;SDS011;56334;52.398;7.552;2023-02-28T03:07:44;16.77;;;4.82;;
69226;SDS011;56334;52.398;7.552;2023-02-28T03:13:08;13.23;;;5.03;;
69226;SDS011;56334;52.398;7.552;2023-02-28T03:15:50;11.88;;;5.15;;
69226;SDS011;56334;52.398;7.552;2023-02-28T03:18:23;13.07;;;4.97;;
69226;SDS011;56334;52.398;7.552;2023-02-28T03:20:59;11.93;;;5.15;;
69226;SDS011;56334;52.398;7.552;2023-02-28T03:23:49;12.93;;;4.90;;
69226;SDS011;56334;52.398;7.552;2023-02-28T03:26:19;12.75;;;4.88;;
69226;SDS011;56334;52.398;7.552;2023-02-28T03:31:20;11.75;;;5.30;;
69226;SDS011;56334;52.398;7.552;2023-02-28T03:33:48;12.65;;;5.18;;
69226;SDS011;56334;52.398;7.552;2023-02-28T03:36:20;13.32;;;4.45;;
69226;SDS011;56334;52.398;7.552;2023-02-28T03:41:27;11.07;;;4.07;;
69226;SDS011;56334;52.398;7.552;2023-02-28T03:44:01;13.45;;;4.97;;
69226;SDS011;56334;52.398;7.552;2023-02-28T03:46:30;16.38;;;5.70;;
69226;SDS011;56334;52.398;7.552;2023-02-28T03:49:01;13.80;;;4.85;;
69226;SDS011;56334;52.398;7.552;2023-02-28T03:51:28;11.68;;;4.45;;
69226;SDS011;56334;52.398;7.552;2023-02-28T03:54:01;12.68;;;5.10;;
69226;SDS011;56334;52.398;7.552;2023-02-28T03:59:06;11.93;;;4.93;;
69226;SDS011;56334;52.398;7.552;2023-02-28T04:01:35;14.13;;;5.00;;
69226;SDS011;56334;52.398;7.552;2023-02-28T04:04:02;12.23;;;5.13;;
69226;SDS011;56334;52.398;7.552;2023-02-28T04:06:33;13.65;;;5.28;;
69226;SDS011;56334;52.398;7.552;2023-02-28T04:08:59;16.17;;;5.85;;
69226;SDS011;56334;52.398;7.552;2023-02-28T04:11:38;15.07;;;6.10;;
69226;SDS011;56334;52.398;7.552;2023-02-28T04:14:06;15.25;;;6.50;;
69226;SDS011;56334;52.398;7.552;2023-02-28T04:16:33;15.88;;;6.65;;
69226;SDS011;56334;52.398;7.552;2023-02-28T04:18:59;15.63;;;6.95;;
69226;SDS011;56334;52.398;7.552;2023-02-28T04:21:40;13.93;;;5.85;;
69226;SDS011;56334;52.398;7.552;2023-02-28T04:24:08;13.73;;;4.95;;
69226;SDS011;56334;52.398;7.552;2023-02-28T04:26:40;13.95;;;4.93;;
69226;SDS011;56334;52.398;7.552;2023-02-28T04:29:06;14.80;;;5.60;;
69226;SDS011;56334;52.398;7.552;2023-02-28T04:31:33;13.68;;;6.00;;
69226;SDS011;56334;52.398;7.552;2023-02-28T04:33:59;15.27;;;6.40;;
69226;SDS011;56334;52.398;7.552;2023-02-28T04:36:25;15.70;;;6.65;;
69226;SDS011;56334;52.398;7.552;2023-02-28T04:38:52;14.52;;;5.75;;
69226;SDS011;56334;52.398;7.552;2023-02-28T04:41:18;15.82;;;5.93;;
69226;SDS011;56334;52.398;7.552;2023-02-28T04:43:45;15.20;;;6.18;;
69226;SDS011;56334;52.398;7.552;2023-02-28T04:46:12;15.70;;;6.03;;
69226;SDS011;56334;52.398;7.552;2023-02-28T04:48:38;17.27;;;6.20;;
69226;SDS011;56334;52.398;7.552;2023-02-28T04:51:09;15.98;;;6.47;;
69226;SDS011;56334;52.398;7.552;2023-02-28T04:53:38;13.18;;;5.85;;
69226;SDS011;56334;52.398;7.552;2023-02-28T04:56:06;16.08;;;6.45;;
69226;SDS011;56334;52.398;7.552;2023-02-28T04:58:33;16.80;;;6.72;;
69226;SDS011;56334;52.398;7.552;2023-02-28T05:01:03;12.73;;;5.80;;
69226;SDS011;56334;52.398;7.552;2023-02-28T05:03:29;16.20;;;6.72;;
69226;SDS011;56334;52.398;7.552;2023-02-28T05:05:55;13.45;;;6.22;;
69226;SDS011;56334;52.398;7.552;2023-02-28T05:08:21;13.93;;;5.25;;
69226;SDS011;56334;52.398;7.552;2023-02-28T05:10:47;11.23;;;3.88;;
69226;SDS011;56334;52.398;7.552;2023-02-28T05:13:13;16.13;;;6.43;;
69226;SDS011;56334;52.398;7.552;2023-02-28T05:15:39;13.32;;;5.57;;
69226;SDS011;56334;52.398;7.552;2023-02-28T05:18:06;13.45;;;5.40;;
69226;SDS011;56334;52.398;7.552;2023-02-28T05:20:34;16.33;;;6.88;;
69226;SDS011;56334;52.398;7.552;2023-02-28T05:23:00;16.08;;;7.05;;
69226;SDS011;56334;52.398;7.552;2023-02-28T05:25:27;16.15;;;7.00;;
69226;SDS011;56334;52.398;7.552;2023-02-28T05:27:53;14.57;;;6.47;;
69226;SDS011;56334;52.398;7.552;2023-02-28T05:30:19;18.23;;;7.50;;
69226;SDS011;56334;52.398;7.552;2023-02-28T05:32:49;17.00;;;8.13;;
69226;SDS011;56334;52.398;7.552;2023-02-28T05:35:15;16.45;;;7.75;;
69226;SDS011;56334;52.398;7.552;2023-02-28T05:37:41;16.90;;;6.75;;
69226;SDS011;56334;52.398;7.552;2023-02-28T05:40:08;16.50;;;7.18;;
69226;SDS011;56334;52.398;7.552;2023-02-28T05:42:36;16.42;;;7.43;;
69226;SDS011;56334;52.398;7.552;2023-02-28T05:45:03;17.98;;;6.68;;
69226;SDS011;56334;52.398;7.552;2023-02-28T05:47:29;16.15;;;7.88;;
69226;SDS011;56334;52.398;7.552;2023-02-28T05:49:55;16.65;;;7.97;;
69226;SDS011;56334;52.398;7.552;2023-02-28T05:52:22;17.75;;;7.68;;
69226;SDS011;56334;52.398;7.552;2023-02-28T05:54:48;17.20;;;7.45;;
69226;SDS011;56334;52.398;7.552;2023-02-28T05:57:14;14.07;;;6.68;;
69226;SDS011;56334;52.398;7.552;2023-02-28T05:59:40;19.25;;;7.78;;
69226;SDS011;56334;52.398;7.552;2023-02-28T06:02:16;16.83;;;6.97;;
69226;SDS011;56334;52.398;7.552;2023-02-28T06:04:43;15.95;;;6.88;;
69226;SDS011;56334;52.398;7.552;2023-02-28T06:07:09;15.85;;;7.90;;
69226;SDS011;56334;52.398;7.552;2023-02-28T06:09:35;17.35;;;8.35;;
69226;SDS011;56334;52.398;7.552;2023-02-28T06:12:02;13.82;;;5.45;;
69226;SDS011;56334;52.398;7.552;2023-02-28T06:14:31;17.55;;;7.78;;
69226;SDS011;56334;52.398;7.552;2023-02-28T06:16:58;18.85;;;8.50;;
69226;SDS011;56334;52.398;7.552;2023-02-28T06:19:24;18.77;;;7.28;;
69226;SDS011;56334;52.398;7.552;2023-02-28T06:21:51;19.33;;;8.70;;
69226;SDS011;56334;52.398;7.552;2023-02-28T06:24:21;18.65;;;8.00;;
69226;SDS011;56334;52.398;7.552;2023-02-28T06:26:48;24.00;;;9.18;;
69226;SDS011;56334;52.398;7.552;2023-02-28T06:29:14;22.25;;;9.65;;
69226;SDS011;56334;52.398;7.552;2023-02-28T06:31:42;20.55;;;9.43;;
69226;SDS011;56334;52.398;7.552;2023-02-28T06:34:09;19.08;;;9.63;;
69226;SDS011;56334;52.398;7.552;2023-02-28T06:36:37;20.33;;;9.77;;
69226;SDS011;56334;52.398;7.552;2023-02-28T06:39:03;18.23;;;8.40;;
69226;SDS011;56334;52.398;7.552;2023-02-28T06:41:29;19.15;;;8.45;;
69226;SDS011;56334;52.398;7.552;2023-02-28T06:43:55;18.05;;;8.35;;
69226;SDS011;56334;52.398;7.552;2023-02-28T06:46:21;20.50;;;8.88;;
69226;SDS011;56334;52.398;7.552;2023-02-28T06:48:47;17.80;;;8.55;;
69226;SDS011;56334;52.398;7.552;2023-02-28T06:51:15;17.25;;;8.32;;
69226;SDS011;56334;52.398;7.552;2023-02-28T06:53:41;19.20;;;9.05;;
69226;SDS011;56334;52.398;7.552;2023-02-28T06:56:09;18.35;;;7.57;;
69226;SDS011;56334;52.398;7.552;2023-02-28T06:58:35;17.55;;;7.90;;
69226;SDS011;56334;52.398;7.552;2023-02-28T07:01:02;21.52;;;9.07;;
69226;SDS011;56334;52.398;7.552;2023-02-28T07:03:29;23.30;;;10.30;;
69226;SDS011;56334;52.398;7.552;2023-02-28T07:05:55;25.75;;;10.38;;
69226;SDS011;56334;52.398;7.552;2023-02-28T07:08:24;27.35;;;11.02;;
69226;SDS011;56334;52.398;7.552;2023-02-28T07:10:56;20.73;;;9.55;;
69226;SDS011;56334;52.398;7.552;2023-02-28T07:13:23;18.45;;;8.75;;
69226;SDS011;56334;52.398;7.552;2023-02-28T07:15:57;20.23;;;8.55;;
69226;SDS011;56334;52.398;7.552;2023-02-28T07:18:23;18.83;;;7.72;;
69226;SDS011;56334;52.398;7.552;2023-02-28T07:20:50;19.38;;;9.13;;
69226;SDS011;56334;52.398;7.552;2023-02-28T07:23:16;22.33;;;10.13;;
69226;SDS011;56334;52.398;7.552;2023-02-28T07:25:42;25.48;;;10.15;;
69226;SDS011;56334;52.398;7.552;2023-02-28T07:28:08;23.02;;;10.10;;
69226;SDS011;56334;52.398;7.552;2023-02-28T07:30:34;20.98;;;8.27;;
69226;SDS011;56334;52.398;7.552;2023-02-28T07:33:00;21.52;;;9.30;;
69226;SDS011;56334;52.398;7.552;2023-02-28T07:35:26;19.83;;;8.88;;
69226;SDS011;56334;52.398;7.552;2023-02-28T07:37:52;20.45;;;8.85;;
69226;SDS011;56334;52.398;7.552;2023-02-28T07:40:18;17.70;;;8.68;;
69226;SDS011;56334;52.398;7.552;2023-02-28T07:42:45;17.80;;;8.95;;
69226;SDS011;56334;52.398;7.552;2023-02-28T07:45:11;20.27;;;9.52;;
69226;SDS011;56334;52.398;7.552;2023-02-28T07:47:38;26.70;;;10.85;;
69226;SDS011;56334;52.398;7.552;2023-02-28T07:50:05;21.08;;;9.93;;
69226;SDS011;56334;52.398;7.552;2023-02-28T07:52:31;20.67;;;9.15;;
69226;SDS011;56334;52.398;7.552;2023-02-28T07:54:57;16.67;;;7.32;;
69226;SDS011;56334;52.398;7.552;2023-02-28T07:57:23;19.02;;;9.32;;
69226;SDS011;56334;52.398;7.552;2023-02-28T07:59:50;16.50;;;7.38;;
69226;SDS011;56334;52.398;7.552;2023-02-28T08:02:18;16.88;;;7.78;;
69226;SDS011;56334;52.398;7.552;2023-02-28T08:04:44;21.60;;;8.35;;
69226;SDS011;56334;52.398;7.552;2023-02-28T08:07:12;18.00;;;7.93;;
69226;SDS011;56334;52.398;7.552;2023-02-28T08:09:39;16.60;;;7.47;;
69226;SDS011;56334;52.398;7.552;2023-02-28T08:12:06;17.15;;;7.32;;
69226;SDS011;56334;52.398;7.552;2023-02-28T08:14:32;12.95;;;5.55;;
69226;SDS011;56334;52.398;7.552;2023-02-28T08:16:59;17.33;;;6.43;;
69226;SDS011;56334;52.398;7.552;2023-02-28T08:19:26;17.92;;;7.32;;
69226;SDS011;56334;52.398;7.552;2023-02-28T08:21:53;13.45;;;5.75;;
69226;SDS011;56334;52.398;7.552;2023-02-28T08:24:19;14.70;;;5.88;;
69226;SDS011;56334;52.398;7.552;2023-02-28T08:26:45;14.45;;;6.18;;
69226;SDS011;56334;52.398;7.552;2023-02-28T08:29:11;14.60;;;6.40;;
69226;SDS011;56334;52.398;7.552;2023-02-28T08:31:37;14.25;;;6.15;;
69226;SDS011;56334;52.398;7.552;2023-02-28T08:34:07;13.45;;;6.00;;
69226;SDS011;56334;52.398;7.552;2023-02-28T08:36:33;12.00;;;5.78;;
69226;SDS011;56334;52.398;7.552;2023-02-28T08:39:01;13.88;;;6.18;;
69226;SDS011;56334;52.398;7.552;2023-02-28T08:41:27;12.68;;;5.82;;
69226;SDS011;56334;52.398;7.552;2023-02-28T08:43:55;12.13;;;4.88;;
69226;SDS011;56334;52.398;7.552;2023-02-28T08:46:21;11.00;;;5.03;;
69226;SDS011;56334;52.398;7.552;2023-02-28T08:48:47;12.68;;;5.47;;
69226;SDS011;56334;52.398;7.552;2023-02-28T08:51:14;13.63;;;5.53;;
69226;SDS011;56334;52.398;7.552;2023-02-28T08:53:48;12.38;;;4.97;;
69226;SDS011;56334;52.398;7.552;2023-02-28T08:56:15;11.52;;;4.55;;
69226;SDS011;56334;52.398;7.552;2023-02-28T08:58:41;14.30;;;4.72;;
69226;SDS011;56334;52.398;7.552;2023-02-28T09:03:35;11.25;;;4.28;;
69226;SDS011;56334;52.398;7.552;2023-02-28T09:06:01;10.70;;;3.72;;
69226;SDS011;56334;52.398;7.552;2023-02-28T09:08:30;9.63;;;4.05;;
69226;SDS011;56334;52.398;7.552;2023-02-28T09:10:57;13.02;;;4.75;;
69226;SDS011;56334;52.398;7.552;2023-02-28T09:13:24;9.63;;;3.83;;
69226;SDS011;56334;52.398;7.552;2023-02-28T09:15:52;8.85;;;3.20;;
69226;SDS011;56334;52.398;7.552;2023-02-28T09:18:19;12.13;;;4.55;;
69226;SDS011;56334;52.398;7.552;2023-02-28T09:20:45;15.52;;;5.28;;
69226;SDS011;56334;52.398;7.552;2023-02-28T09:23:12;18.35;;;6.38;;
69226;SDS011;56334;52.398;7.552;2023-02-28T09:25:44;10.60;;;4.15;;
69226;SDS011;56334;52.398;7.552;2023-02-28T09:28:10;14.75;;;5.22;;
69226;SDS011;56334;52.398;7.552;2023-02-28T09:30:36;8.15;;;2.22;;
69226;SDS011;56334;52.398;7.552;2023-02-28T09:33:03;6.55;;;1.95;;
69226;SDS011;56334;52.398;7.552;2023-02-28T09:35:29;6.57;;;1.75;;
69226;SDS011;56334;52.398;7.552;2023-02-28T09:37:56;6.80;;;1.50;;
69226;SDS011;56334;52.398;7.552;2023-02-28T09:42:51;7.22;;;1.92;;
69226;SDS011;56334;52.398;7.552;2023-02-28T09:45:27;7.88;;;2.50;;
69226;SDS011;56334;52.398;7.552;2023-02-28T09:47:56;7.38;;;2.00;;
69226;SDS011;56334;52.398;7.552;2023-02-28T09:52:52;7.70;;;2.13;;
69226;SDS011;56334;52.398;7.552;2023-02-28T09:55:28;7.32;;;1.95;;
69226;SDS011;56334;52.398;7.552;2023-02-28T09:57:57;7.10;;;2.00;;
69226;SDS011;56334;52.398;7.552;2023-02-28T10:00:33;6.13;;;1.85;;
69226;SDS011;56334;52.398;7.552;2023-02-28T10:08:18;7.97;;;2.35;;
69226;SDS011;56334;52.398;7.552;2023-02-28T10:11:00;6.18;;;1.92;;
69226;SDS011;56334;52.398;7.552;2023-02-28T10:13:36;7.65;;;2.38;;
69226;SDS011;56334;52.398;7.552;2023-02-28T10:16:08;6.05;;;1.60;;
69226;SDS011;56334;52.398;7.552;2023-02-28T10:19:20;6.22;;;1.77;;
69226;SDS011;56334;52.398;7.552;2023-02-28T10:21:46;5.45;;;1.58;;
69226;SDS011;56334;52.398;7.552;2023-02-28T10:24:30;7.05;;;2.00;;
69226;SDS011;56334;52.398;7.552;2023-02-28T10:27:18;6.07;;;1.55;;
69226;SDS011;56334;52.398;7.552;2023-02-28T10:29:49;5.72;;;1.50;;
69226;SDS011;56334;52.398;7.552;2023-02-28T10:32:19;6.90;;;1.58;;
69226;SDS011;56334;52.398;7.552;2023-02-28T10:34:52;5.80;;;1.60;;
69226;SDS011;56334;52.398;7.552;2023-02-28T10:37:20;6.32;;;1.60;;
69226;SDS011;56334;52.398;7.552;2023-02-28T10:45:32;5.75;;;1.50;;
69226;SDS011;56334;52.398;7.552;2023-02-28T10:48:04;5.53;;;1.60;;
69226;SDS011;56334;52.398;7.552;2023-02-28T10:50:42;6.28;;;1.60;;
69226;SDS011;56334;52.398;7.552;2023-02-28T11:01:00;4.22;;;1.30;;
69226;SDS011;56334;52.398;7.552;2023-02-28T11:03:29;5.00;;;1.30;;
69226;SDS011;56334;52.398;7.552;2023-02-28T11:05:57;5.90;;;1.60;;
69226;SDS011;56334;52.398;7.552;2023-02-28T11:08:23;4.45;;;1.30;;
69226;SDS011;56334;52.398;7.552;2023-02-28T11:11:03;6.45;;;1.40;;
69226;SDS011;56334;52.398;7.552;2023-02-28T11:13:34;5.82;;;1.48;;
69226;SDS011;56334;52.398;7.552;2023-02-28T11:16:05;5.05;;;1.55;;
69226;SDS011;56334;52.398;7.552;2023-02-28T11:21:04;6.82;;;2.35;;
69226;SDS011;56334;52.398;7.552;2023-02-28T11:23:45;5.57;;;1.63;;
69226;SDS011;56334;52.398;7.552;2023-02-28T11:26:11;6.05;;;1.50;;
69226;SDS011;56334;52.398;7.552;2023-02-28T11:28:39;6.07;;;1.65;;
69226;SDS011;56334;52.398;7.552;2023-02-28T11:36:16;9.68;;;3.17;;
69226;SDS011;56334;52.398;7.552;2023-02-28T11:38:42;10.93;;;3.80;;
69226;SDS011;56334;52.398;7.552;2023-02-28T11:44:00;5.55;;;1.45;;
69226;SDS011;56334;52.398;7.552;2023-02-28T11:46:33;5.75;;;1.55;;
69226;SDS011;56334;52.398;7.552;2023-02-28T11:49:04;5.53;;;1.60;;
69226;SDS011;56334;52.398;7.552;2023-02-28T11:54:27;6.97;;;1.60;;
69226;SDS011;56334;52.398;7.552;2023-02-28T11:57:00;6.57;;;2.10;;
69226;SDS011;56334;52.398;7.552;2023-02-28T11:59:47;6.10;;;1.60;;
69226;SDS011;56334;52.398;7.552;2023-02-28T12:02:29;6.90;;;1.75;;
69226;SDS011;56334;52.398;7.552;2023-02-28T12:13:48;6.38;;;1.70;;
69226;SDS011;56334;52.398;7.552;2023-02-28T12:16:28;5.47;;;1.73;;
69226;SDS011;56334;52.398;7.552;2023-02-28T12:22:11;5.47;;;1.70;;
69226;SDS011;56334;52.398;7.552;2023-02-28T12:27:07;9.10;;;2.25;;
69226;SDS011;56334;52.398;7.552;2023-02-28T12:29:59;15.15;;;3.30;;
69226;SDS011;56334;52.398;7.552;2023-02-28T12:32:38;8.18;;;2.70;;
69226;SDS011;56334;52.398;7.552;2023-02-28T12:37:43;5.68;;;1.70;;
69226;SDS011;56334;52.398;7.552;2023-02-28T12:40:19;7.10;;;1.88;;
69226;SDS011;56334;52.398;7.552;2023-02-28T12:42:47;6.13;;;1.80;;
69226;SDS011;56334;52.398;7.552;2023-02-28T12:47:48;5.38;;;1.80;;
69226;SDS011;56334;52.398;7.552;2023-02-28T12:50:15;6.35;;;1.95;;
69226;SDS011;56334;52.398;7.552;2023-02-28T12:58:08;6.82;;;1.95;;
69226;SDS011;56334;52.398;7.552;2023-02-28T13:00:38;6.47;;;2.10;;
69226;SDS011;56334;52.398;7.552;2023-02-28T13:17:17;7.53;;;2.47;;
69226;SDS011;56334;52.398;7.552;2023-02-28T13:22:48;5.93;;;1.92;;
69226;SDS011;56334;52.398;7.552;2023-02-28T13:27:54;6.30;;;2.13;;
69226;SDS011;56334;52.398;7.552;2023-02-28T13:33:22;9.45;;;2.30;;
69226;SDS011;56334;52.398;7.552;2023-02-28T13:35:49;8.52;;;2.60;;
69226;SDS011;56334;52.398;7.552;2023-02-28T13:38:32;7.18;;;2.40;;
69226;SDS011;56334;52.398;7.552;2023-02-28T13:46:29;10.48;;;2.90;;
69226;SDS011;56334;52.398;7.552;2023-02-28T13:48:56;6.82;;;1.70;;
69226;SDS011;56334;52.398;7.552;2023-02-28T13:51:27;6.43;;;1.80;;
69226;SDS011;56334;52.398;7.552;2023-02-28T13:53:56;6.00;;;1.80;;
69226;SDS011;56334;52.398;7.552;2023-02-28T13:56:39;6.93;;;2.50;;
69226;SDS011;56334;52.398;7.552;2023-02-28T14:04:42;6.90;;;1.98;;
69226;SDS011;56334;52.398;7.552;2023-02-28T14:07:32;6.75;;;2.03;;
69226;SDS011;56334;52.398;7.552;2023-02-28T14:10:03;6.30;;;2.00;;
69226;SDS011;56334;52.398;7.552;2023-02-28T14:17:54;6.43;;;1.95;;
69226;SDS011;56334;52.398;7.552;2023-02-28T14:20:21;7.13;;;2.17;;
69226;SDS011;56334;52.398;7.552;2023-02-28T14:38:45;7.28;;;1.90;;
69226;SDS011;56334;52.398;7.552;2023-02-28T14:41:34;6.65;;;1.80;;
69226;SDS011;56334;52.398;7.552;2023-02-28T14:44:03;6.32;;;1.88;;
69226;SDS011;56334;52.398;7.552;2023-02-28T14:46:39;7.05;;;1.90;;
69226;SDS011;56334;52.398;7.552;2023-02-28T14:51:35;6.95;;;2.22;;
69226;SDS011;56334;52.398;7.552;2023-02-28T14:54:01;6.50;;;1.85;;
69226;SDS011;56334;52.398;7.552;2023-02-28T14:56:37;13.35;;;2.55;;
69226;SDS011;56334;52.398;7.552;2023-02-28T14:59:03;6.72;;;1.90;;
69226;SDS011;56334;52.398;7.552;2023-02-28T15:01:30;6.43;;;1.90;;
69226;SDS011;56334;52.398;7.552;2023-02-28T15:04:02;6.80;;;2.10;;
69226;SDS011;56334;52.398;7.552;2023-02-28T15:06:29;7.90;;;1.90;;
69226;SDS011;56334;52.398;7.552;2023-02-28T15:09:08;6.60;;;2.00;;
69226;SDS011;56334;52.398;7.552;2023-02-28T15:11:34;6.53;;;1.85;;
69226;SDS011;56334;52.398;7.552;2023-02-28T15:14:00;6.32;;;1.92;;
69226;SDS011;56334;52.398;7.552;2023-02-28T15:16:40;5.82;;;1.83;;
69226;SDS011;56334;52.398;7.552;2023-02-28T15:19:11;7.65;;;2.00;;
69226;SDS011;56334;52.398;7.552;2023-02-28T15:21:41;6.28;;;1.95;;
69226;SDS011;56334;52.398;7.552;2023-02-28T15:26:56;6.60;;;2.00;;
69226;SDS011;56334;52.398;7.552;2023-02-28T15:29:24;7.65;;;2.20;;
69226;SDS011;56334;52.398;7.552;2023-02-28T15:31:52;7.57;;;2.40;;
69226;SDS011;56334;52.398;7.552;2023-02-28T15:34:25;7.80;;;2.40;;
69226;SDS011;56334;52.398;7.552;2023-02-28T15:36:52;7.00;;;2.40;;
69226;SDS011;56334;52.398;7.552;2023-02-28T15:39:22;6.63;;;2.50;;
69226;SDS011;56334;52.398;7.552;2023-02-28T15:44:40;6.85;;;2.30;;
69226;SDS011;56334;52.398;7.552;2023-02-28T15:47:12;6.00;;;2.03;;
69226;SDS011;56334;52.398;7.552;2023-02-28T15:52:09;7.70;;;2.35;;
69226;SDS011;56334;52.398;7.552;2023-02-28T15:54:37;8.88;;;3.55;;
69226;SDS011;56334;52.398;7.552;2023-02-28T15:57:05;7.50;;;2.30;;
69226;SDS011;56334;52.398;7.552;2023-02-28T15:59:33;6.53;;;2.45;;
69226;SDS011;56334;52.398;7.552;2023-02-28T16:04:25;7.82;;;2.70;;
69226;SDS011;56334;52.398;7.552;2023-02-28T16:09:25;8.20;;;2.83;;
69226;SDS011;56334;52.398;7.552;2023-02-28T16:11:53;8.20;;;3.22;;
69226;SDS011;56334;52.398;7.552;2023-02-28T16:14:24;10.20;;;3.33;;
69226;SDS011;56334;52.398;7.552;2023-02-28T16:17:35;8.75;;;3.20;;
69226;SDS011;56334;52.398;7.552;2023-02-28T16:19:42;8.38;;;2.83;;
69226;SDS011;56334;52.398;7.552;2023-02-28T16:22:12;8.25;;;2.65;;
69226;SDS011;56334;52.398;7.552;2023-02-28T16:24:38;7.60;;;2.83;;
69226;SDS011;56334;52.398;7.552;2023-02-28T16:27:05;7.18;;;2.70;;
69226;SDS011;56334;52.398;7.552;2023-02-28T16:29:35;9.20;;;3.03;;
69226;SDS011;56334;52.398;7.552;2023-02-28T16:32:01;7.47;;;2.90;;
69226;SDS011;56334;52.398;7.552;2023-02-28T16:34:31;8.98;;;3.70;;
69226;SDS011;56334;52.398;7.552;2023-02-28T16:36:57;14.50;;;6.00;;
69226;SDS011;56334;52.398;7.552;2023-02-28T16:39:24;13.70;;;5.45;;
69226;SDS011;56334;52.398;7.552;2023-02-28T16:41:50;12.98;;;5.72;;
69226;SDS011;56334;52.398;7.552;2023-02-28T16:44:28;11.50;;;4.93;;
69226;SDS011;56334;52.398;7.552;2023-02-28T16:46:55;17.35;;;7.47;;
69226;SDS011;56334;52.398;7.552;2023-02-28T16:49:24;33.42;;;15.70;;
69226;SDS011;56334;52.398;7.552;2023-02-28T16:52:00;53.97;;;27.17;;
69226;SDS011;56334;52.398;7.552;2023-02-28T16:54:27;42.22;;;19.98;;
69226;SDS011;56334;52.398;7.552;2023-02-28T16:56:53;39.38;;;19.42;;
69226;SDS011;56334;52.398;7.552;2023-02-28T16:59:22;32.08;;;16.40;;
69226;SDS011;56334;52.398;7.552;2023-02-28T17:01:49;24.65;;;12.15;;
69226;SDS011;56334;52.398;7.552;2023-02-28T17:04:16;17.38;;;8.77;;
69226;SDS011;56334;52.398;7.552;2023-02-28T17:06:44;12.80;;;5.65;;
69226;SDS011;56334;52.398;7.552;2023-02-28T17:09:17;15.32;;;6.07;;
69226;SDS011;56334;52.398;7.552;2023-02-28T17:11:44;11.52;;;5.00;;
69226;SDS011;56334;52.398;7.552;2023-02-28T17:14:11;13.02;;;5.47;;
69226;SDS011;56334;52.398;7.552;2023-02-28T17:16:37;11.57;;;4.93;;
69226;SDS011;56334;52.398;7.552;2023-02-28T17:19:06;12.25;;;5.57;;
69226;SDS011;56334;52.398;7.552;2023-02-28T17:21:33;12.90;;;6.47;;
69226;SDS011;56334;52.398;7.552;2023-02-28T17:23:59;16.55;;;8.10;;
69226;SDS011;56334;52.398;7.552;2023-02-28T17:26:26;28.55;;;12.35;;
69226;SDS011;56334;52.398;7.552;2023-02-28T17:28:53;24.92;;;9.38;;
69226;SDS011;56334;52.398;7.552;2023-02-28T17:31:26;27.92;;;11.02;;
69226;SDS011;56334;52.398;7.552;2023-02-28T17:33:54;19.80;;;8.38;;
69226;SDS011;56334;52.398;7.552;2023-02-28T17:36:21;18.77;;;8.45;;
69226;SDS011;56334;52.398;7.552;2023-02-28T17:38:47;17.85;;;7.72;;
69226;SDS011;56334;52.398;7.552;2023-02-28T17:41:13;22.40;;;10.55;;
69226;SDS011;56334;52.398;7.552;2023-02-28T17:43:39;12.70;;;5.40;;
69226;SDS011;56334;52.398;7.552;2023-02-28T17:46:06;12.23;;;5.05;;